Time;durP1;ratioP1;P1;durP2;ratioP2;P2;SDS_P1;SDS_P2;PMS_P1;PMS_P2;Temp;Humidity;BMP_temperature;BMP_pressure;BME280_temperature;BME280_humidity;BME280_pressure;Samples;Min_cycle;Max_cycle;Signal;HPM_P1;HPM_P2
2024/04/03 00:00:59;;;;;;;14.55;4.55;;;;;;;8.50;100.00;99381.31;10517869;28;20028;-39
2024/04/03 00:06:00;;;;;;;17.98;4.53;;;;;;;8.58;100.00;99387.56;10515772;28;20427;-40
2024/04/03 00:11:01;;;;;;;17.52;4.65;;;;;;;8.60;100.00;99369.38;10511317;28;20521;-41
2024/04/03 00:16:01;;;;;;;20.88;7.93;;;;;;;8.59;100.00;99368.50;10523534;28;20035;-39
2024/04/03 00:21:03;;;;;;;27.58;12.85;;;;;;;8.57;100.00;99364.09;10530774;28;20433;-40
2024/04/03 00:26:04;;;;;;;27.98;11.68;;;;;;;8.56;100.00;99363.22;10527555;28;20068;-38
2024/04/03 00:31:04;;;;;;;30.23;11.45;;;;;;;8.55;100.00;99351.03;10528253;28;20063;-40
2024/04/03 00:36:05;;;;;;;27.08;10.05;;;;;;;8.55;100.00;99350.16;10525869;28;20040;-38
2024/04/03 00:41:06;;;;;;;22.08;8.20;;;;;;;8.47;100.00;99357.81;10527313;28;20051;-39
2024/04/03 00:46:08;;;;;;;18.50;7.28;;;;;;;8.44;100.00;99355.13;10523578;28;20043;-39
2024/04/03 00:51:11;;;;;;;16.00;5.90;;;;;;;8.50;100.00;99347.47;10505074;28;20040;-40
2024/04/03 00:56:12;;;;;;;12.60;5.00;;;;;;;8.49;100.00;99343.06;10505030;28;20032;-39
2024/04/03 01:01:13;;;;;;;14.13;4.88;;;;;;;8.45;100.00;99340.38;10519833;28;20047;-41
2024/04/03 01:06:14;;;;;;;19.80;5.60;;;;;;;8.37;100.00;99328.03;10521529;28;20559;-39
2024/04/03 01:11:15;;;;;;;19.00;5.78;;;;;;;8.34;100.00;99332.25;10520491;28;20043;-40
2024/04/03 01:16:15;;;;;;;14.18;5.78;;;;;;;8.28;100.00;99333.03;10519723;28;20506;-39
2024/04/03 01:21:16;;;;;;;14.13;5.30;;;;;;;8.24;100.00;99335.50;10516780;28;20033;-40
2024/04/03 01:26:17;;;;;;;14.75;5.43;;;;;;;8.19;100.00;99332.78;10516792;28;20412;-40
2024/04/03 01:31:17;;;;;;;16.63;5.72;;;;;;;8.20;100.00;99333.66;10517380;28;20040;-39
2024/04/03 01:36:18;;;;;;;10.85;5.25;;;;;;;8.23;100.00;99333.75;10515650;28;20494;-41
2024/04/03 01:41:18;;;;;;;14.02;5.55;;;;;;;8.21;100.00;99335.41;10512013;28;20490;-40
2024/04/03 01:46:19;;;;;;;16.60;5.53;;;;;;;8.16;100.00;99332.72;10514031;28;20059;-40
2024/04/03 01:51:20;;;;;;;15.57;5.93;;;;;;;8.14;100.00;99334.38;10514011;28;20048;-40
2024/04/03 01:56:20;;;;;;;15.73;6.95;;;;;;;8.13;100.00;99338.72;10494696;28;20048;-40
2024/04/03 02:01:21;;;;;;;18.52;8.02;;;;;;;8.14;100.00;99331.78;10520641;28;20032;-42
2024/04/03 02:06:22;;;;;;;18.10;8.48;;;;;;;8.11;100.00;99334.31;10526911;28;20508;-40
2024/04/03 02:11:22;;;;;;;16.45;8.43;;;;;;;8.14;100.00;99335.25;10528254;28;20517;-39
2024/04/03 02:16:24;;;;;;;20.35;9.48;;;;;;;8.14;100.00;99327.47;10535818;28;20036;-40
2024/04/03 02:21:25;;;;;;;18.30;8.90;;;;;;;8.18;100.00;99325.81;10532557;28;20051;-41
2024/04/03 02:26:26;;;;;;;22.77;8.88;;;;;;;8.20;100.00;99331.06;10527521;28;20036;-39
2024/04/03 02:31:26;;;;;;;22.15;9.13;;;;;;;8.19;100.00;99326.72;10529988;28;20047;-39
2024/04/03 02:36:27;;;;;;;20.67;9.02;;;;;;;8.22;100.00;99329.41;10525113;28;20047;-40
2024/04/03 02:41:27;;;;;;;17.15;8.75;;;;;;;8.22;100.00;99329.41;10527708;28;20032;-39
2024/04/03 02:46:28;;;;;;;20.63;8.90;;;;;;;8.23;100.00;99324.22;10530206;28;20032;-41
2024/04/03 02:51:30;;;;;;;19.27;9.02;;;;;;;8.21;100.00;99328.47;10505120;28;20048;-38
2024/04/03 02:56:30;;;;;;;19.50;8.45;;;;;;;8.21;100.00;99314.59;10523952;28;20039;-39
2024/04/03 03:01:31;;;;;;;16.30;8.65;;;;;;;8.25;100.00;99304.31;10523796;28;20039;-41
2024/04/03 03:06:32;;;;;;;20.80;8.93;;;;;;;8.25;100.00;99301.72;10519232;28;20062;-38
2024/04/03 03:11:32;;;;;;;17.35;8.95;;;;;;;8.22;100.00;99301.63;10520253;28;20037;-39
2024/04/03 03:16:33;;;;;;;17.00;8.65;;;;;;;8.23;100.00;99295.56;10514482;28;20036;-40
2024/04/03 03:21:34;;;;;;;20.13;9.00;;;;;;;8.19;100.00;99298.97;10517554;28;20043;-39
2024/04/03 03:26:34;;;;;;;18.90;9.27;;;;;;;8.23;100.00;99294.69;10518855;28;20051;-37
2024/04/03 03:31:35;;;;;;;20.58;9.90;;;;;;;8.28;100.00;99287.88;10515758;28;20054;-40
2024/04/03 03:36:36;;;;;;;20.80;9.38;;;;;;;8.23;100.00;99290.38;10521916;28;20036;-37
2024/04/03 03:41:36;;;;;;;20.48;9.98;;;;;;;8.28;100.00;99295.69;10513605;28;20036;-42
2024/04/03 03:46:37;;;;;;;21.27;9.88;;;;;;;8.26;100.00;99289.56;10503292;28;20040;-39
2024/04/03 03:56:57;;;;;;;19.45;9.73;;;;;;;8.23;100.00;99289.50;10526254;28;20561;-40
2024/04/03 04:01:57;;;;;;;17.13;8.65;;;;;;;8.28;100.00;99278.34;10530757;28;20097;-40
2024/04/03 04:06:58;;;;;;;19.25;8.25;;;;;;;8.28;100.00;99277.47;10526176;28;20040;-39
2024/04/03 04:11:59;;;;;;;16.90;7.93;;;;;;;8.27;100.00;99278.31;10527037;28;20240;-36
2024/04/03 04:17:00;;;;;;;16.55;7.47;;;;;;;8.20;100.00;99281.63;10525425;28;20044;-39
2024/04/03 04:22:00;;;;;;;13.70;6.60;;;;;;;8.22;100.00;99269.53;10524481;28;20032;-39
2024/04/03 04:27:04;;;;;;;12.70;7.13;;;;;;;8.23;100.00;99273.88;10520660;28;20040;-40
2024/04/03 04:32:05;;;;;;;11.38;6.20;;;;;;;8.28;100.00;99267.06;10522200;28;20032;-39
2024/04/03 04:37:06;;;;;;;13.18;6.40;;;;;;;8.29;100.00;99255.81;10520300;28;20039;-39
2024/04/03 04:42:08;;;;;;;15.00;6.50;;;;;;;8.31;100.00;99252.41;10517932;28;20032;-39
2024/04/03 04:47:09;;;;;;;12.88;6.30;;;;;;;8.31;100.00;99260.22;10520397;28;20044;-39
2024/04/03 04:52:09;;;;;;;12.68;6.63;;;;;;;8.33;100.00;99260.22;10517307;28;20039;-39
2024/04/03 04:57:14;;;;;;;12.05;6.57;;;;;;;8.32;100.00;99250.66;10518364;28;20489;-39
2024/04/03 05:02:15;;;;;;;13.38;7.13;;;;;;;8.26;100.00;99246.19;10494734;28;20123;-39
2024/04/03 05:07:16;;;;;;;15.77;7.10;;;;;;;8.29;100.00;99240.19;10516377;28;20067;-39
2024/04/03 05:12:16;;;;;;;14.48;7.28;;;;;;;8.28;100.00;99243.63;10512475;28;20040;-40
2024/04/03 05:17:18;;;;;;;14.73;7.90;;;;;;;8.31;100.00;99244.59;10501640;28;20044;-39
2024/04/03 05:22:19;;;;;;;13.90;7.60;;;;;;;8.34;100.00;99228.13;10510254;28;20059;-40
2024/04/03 05:27:20;;;;;;;15.90;7.70;;;;;;;8.33;100.00;99221.19;10509659;28;20044;-39
2024/04/03 05:32:21;;;;;;;15.13;8.13;;;;;;;8.35;100.00;99227.31;10525020;28;20089;-40
2024/04/03 05:37:21;;;;;;;18.02;8.00;;;;;;;8.32;100.00;99228.13;10527272;28;20043;-40
2024/04/03 05:42:22;;;;;;;16.45;8.20;;;;;;;8.39;100.00;99218.75;10525796;28;20040;-39
2024/04/03 05:47:22;;;;;;;15.35;7.97;;;;;;;8.42;100.00;99211.00;10526383;28;20078;-39
2024/04/03 05:52:23;;;;;;;14.57;7.78;;;;;;;8.41;100.00;99213.59;10533299;28;20074;-39
2024/04/03 05:57:24;;;;;;;12.82;7.45;;;;;;;8.39;100.00;99200.53;10515398;28;20401;-39
2024/04/03 06:02:25;;;;;;;12.88;7.90;;;;;;;8.45;100.00;99194.56;10530359;28;20409;-40
2024/04/03 06:07:25;;;;;;;15.02;8.05;;;;;;;8.49;100.00;99189.44;10530478;28;20040;-39
2024/04/03 06:12:26;;;;;;;14.80;8.38;;;;;;;8.53;100.00;99193.00;10528597;28;20055;-39
2024/04/03 06:17:27;;;;;;;11.48;7.43;;;;;;;8.57;100.00;99182.69;10528565;28;20032;-39
2024/04/03 06:22:27;;;;;;;14.38;7.63;;;;;;;8.62;100.00;99193.19;10525780;28;20451;-39
2024/04/03 06:27:28;;;;;;;14.80;7.70;;;;;;;8.63;100.00;99194.06;10509777;28;20040;-38
2024/04/03 06:32:29;;;;;;;12.23;7.10;;;;;;;8.62;100.00;99181.88;10523743;28;20067;-40
2024/04/03 06:37:29;;;;;;;13.90;8.13;;;;;;;8.64;100.00;99182.81;10524704;28;20048;-39
2024/04/03 06:42:30;;;;;;;14.15;8.52;;;;;;;8.65;100.00;99182.81;10521172;28;20039;-40
2024/04/03 06:47:31;;;;;;;12.85;7.65;;;;;;;8.65;100.00;99175.00;10522272;28;20102;-40
2024/04/03 06:52:32;;;;;;;13.77;8.57;;;;;;;8.67;100.00;99180.28;10518837;28;20123;-39
2024/04/03 06:57:32;;;;;;;13.88;8.13;;;;;;;8.67;100.00;99181.16;10512742;28;20406;-39
2024/04/03 07:02:33;;;;;;;13.90;7.80;;;;;;;8.66;100.00;99174.19;10520329;28;20033;-39
2024/04/03 07:07:33;;;;;;;17.92;8.00;;;;;;;8.67;100.00;99177.66;10515722;28;20036;-38
2024/04/03 07:12:34;;;;;;;14.60;7.85;;;;;;;8.65;100.00;99181.94;10516548;28;20113;-39
2024/04/03 07:17:35;;;;;;;15.88;8.27;;;;;;;8.65;100.00;99187.16;10533607;28;20085;-39
2024/04/03 07:22:40;;;;;;;14.40;7.60;;;;;;;8.64;100.00;99180.22;10517598;28;20036;-40
2024/04/03 07:27:58;;;;;;;14.43;7.78;;;;;;;8.68;100.00;99184.63;10494443;28;20051;-40
2024/04/03 07:33:19;;;;;;;11.23;7.28;;;;;;;8.65;100.00;99180.22;10413357;28;20040;-39
2024/04/03 07:38:27;;;;;;;12.40;7.38;;;;;;;8.74;100.00;99176.94;10398517;28;20119;-41
2024/04/03 07:43:38;;;;;;;14.05;7.28;;;;;;;8.82;100.00;99178.84;10378718;28;20048;-39
2024/04/03 07:48:43;;;;;;;14.65;6.63;;;;;;;8.91;100.00;99170.34;10434939;28;20043;-39
2024/04/03 07:53:46;;;;;;;12.25;6.55;;;;;;;9.01;100.00;99172.25;10449942;28;20513;-39
2024/04/03 07:58:47;;;;;;;8.45;5.25;;;;;;;9.07;100.00;99171.50;10507060;28;20039;-39
2024/04/03 08:03:47;;;;;;;9.70;5.53;;;;;;;9.17;100.00;99173.41;10523067;28;20036;-39
2024/04/03 08:08:48;;;;;;;13.20;5.70;;;;;;;9.22;100.00;99166.53;10522909;28;20040;-39
2024/04/03 08:13:48;;;;;;;8.73;4.85;;;;;;;9.29;100.00;99162.31;10520707;28;20073;-39
2024/04/03 08:18:49;;;;;;;11.73;4.85;;;;;;;9.40;100.00;99152.94;10521281;28;20043;-39
2024/04/03 08:23:50;;;;;;;9.80;4.25;;;;;;;9.44;100.00;99159.97;10518523;28;20047;-42
2024/04/03 08:28:53;;;;;;;9.30;3.80;;;;;;;9.48;100.00;99153.97;10510303;28;20044;-42
2024/04/03 08:34:00;;;;;;;9.35;3.15;;;;;;;9.45;100.00;99146.09;10450527;28;20078;-39
2024/04/03 08:39:02;;;;;;;10.37;2.60;;;;;;;9.48;100.00;99145.25;10473706;28;20033;-39
2024/04/03 08:44:03;;;;;;;8.07;2.72;;;;;;;9.51;100.00;99147.91;10519108;28;20433;-39
2024/04/03 08:49:05;;;;;;;5.75;2.80;;;;;;;9.52;100.00;99147.06;10510683;28;20036;-38
2024/04/03 08:54:05;;;;;;;6.80;2.63;;;;;;;9.50;100.00;99133.13;10520308;28;20145;-39
2024/04/03 08:59:06;;;;;;;8.88;3.03;;;;;;;9.45;100.00;99140.88;10492113;28;20040;-39
2024/04/03 09:04:07;;;;;;;6.82;2.70;;;;;;;9.53;100.00;99134.03;10525059;28;20039;-39
2024/04/03 09:09:17;;;;;;;6.28;2.53;;;;;;;9.54;100.00;99127.94;10527501;28;20036;-39
2024/04/03 09:14:20;;;;;;;8.38;2.80;;;;;;;9.61;100.00;99125.44;10520884;28;20450;-39
2024/04/03 09:19:21;;;;;;;10.93;3.10;;;;;;;9.69;100.00;99127.31;10525205;28;20088;-38
2024/04/03 09:24:22;;;;;;;7.50;3.08;;;;;;;9.66;100.00;99129.00;10519422;28;20032;-40
2024/04/03 09:29:23;;;;;;;7.65;3.10;;;;;;;9.67;100.00;99134.28;10518949;28;20043;-39
2024/04/03 09:34:25;;;;;;;7.57;3.30;;;;;;;9.67;100.00;99136.88;10519238;28;20032;-38
2024/04/03 09:39:26;;;;;;;8.10;3.03;;;;;;;9.69;100.00;99131.66;10499701;28;20122;-39
2024/04/03 09:44:27;;;;;;;4.85;2.80;;;;;;;9.75;100.00;99132.63;10519821;28;20036;-39
2024/04/03 09:49:27;;;;;;;6.30;3.08;;;;;;;9.75;100.00;99129.16;10503837;28;20048;-39
2024/04/03 09:54:28;;;;;;;10.30;3.17;;;;;;;9.89;100.00;99121.50;10518141;28;20040;-39
2024/04/03 09:59:29;;;;;;;8.73;3.05;;;;;;;10.04;100.00;99123.47;10499787;28;20066;-39
2024/04/03 10:04:38;;;;;;;9.02;3.22;;;;;;;10.19;100.00;99126.28;10516383;28;20044;-39
2024/04/03 10:09:39;;;;;;;5.18;2.60;;;;;;;10.24;100.00;99129.81;10512714;28;20090;-39
2024/04/03 10:14:39;;;;;;;5.70;2.30;;;;;;;10.25;100.00;99129.00;10513194;28;20052;-39
2024/04/03 10:19:43;;;;;;;4.50;2.05;;;;;;;10.28;100.00;99121.22;10511033;28;20417;-38
2024/04/03 10:24:45;;;;;;;4.60;1.95;;;;;;;10.40;100.00;99118.78;10512823;28;20040;-39
2024/04/03 10:29:46;;;;;;;5.18;2.20;;;;;;;10.39;100.00;99119.59;10509103;28;20409;-38
2024/04/03 10:34:47;;;;;;;5.28;2.33;;;;;;;10.58;100.00;99109.38;10517539;28;20031;-39
2024/04/03 10:39:51;;;;;;;4.68;1.80;;;;;;;10.53;100.00;99103.22;10497378;28;20032;-39
2024/04/03 10:44:52;;;;;;;3.58;1.73;;;;;;;10.49;100.00;99104.06;10522663;28;20182;-39
2024/04/03 10:49:52;;;;;;;4.50;1.52;;;;;;;10.34;100.00;99108.25;10534106;28;20044;-39
2024/04/03 10:54:53;;;;;;;3.30;1.60;;;;;;;10.26;100.00;99099.44;10531939;28;20027;-38
2024/04/03 10:59:57;;;;;;;3.50;1.50;;;;;;;10.09;100.00;99095.72;10531587;28;20028;-40
2024/04/03 11:04:59;;;;;;;1.92;1.38;;;;;;;10.00;100.00;99093.84;10529968;28;20512;-38
2024/04/03 11:09:59;;;;;;;5.13;1.50;;;;;;;10.02;100.00;99099.94;10528417;28;20233;-37
2024/04/03 11:15:00;;;;;;;3.50;1.60;;;;;;;10.07;100.00;99103.50;10524280;28;20028;-39
2024/04/03 11:20:01;;;;;;;3.40;1.60;;;;;;;9.99;100.00;99094.72;10530648;28;20031;-38
2024/04/03 11:25:02;;;;;;;2.85;1.40;;;;;;;10.20;100.00;99089.75;10532948;28;20093;-38
2024/04/03 11:30:03;;;;;;;2.08;1.42;;;;;;;10.31;100.00;99081.22;10531634;28;20036;-38
2024/04/03 11:35:07;;;;;;;2.15;1.33;;;;;;;10.28;100.00;99097.72;10533780;28;20036;-39
2024/04/03 11:40:08;;;;;;;2.30;1.40;;;;;;;10.33;100.00;99085.59;10533104;28;20036;-39
2024/04/03 11:45:08;;;;;;;3.15;1.40;;;;;;;10.54;100.00;99091.94;10532680;28;20043;-36
2024/04/03 11:50:09;;;;;;;3.53;1.35;;;;;;;10.48;100.00;99082.28;10532282;28;20043;-39
2024/04/03 11:55:10;;;;;;;2.08;1.10;;;;;;;10.57;100.00;99077.16;10532325;28;20104;-39
2024/04/03 12:00:11;;;;;;;2.00;1.20;;;;;;;10.61;100.00;99083.28;10531476;28;20089;-39
2024/04/03 12:05:12;;;;;;;1.80;1.13;;;;;;;10.58;100.00;99075.44;10521564;28;20494;-38
2024/04/03 12:10:13;;;;;;;1.60;0.90;;;;;;;10.49;100.00;99070.09;10517991;28;20045;-38
2024/04/03 12:15:14;;;;;;;2.47;1.17;;;;;;;10.49;100.00;99077.94;10509812;28;20560;-39
2024/04/03 12:20:14;;;;;;;1.85;1.20;;;;;;;10.54;100.00;99071.03;10516470;28;20118;-39
2024/04/03 12:25:15;;;;;;;2.33;1.10;;;;;;;10.66;100.00;99071.16;10511502;28;20094;-38
2024/04/03 12:30:16;;;;;;;3.58;1.20;;;;;;;10.65;100.00;99074.63;10526646;28;20044;-39
2024/04/03 12:35:18;;;;;;;1.10;1.00;;;;;;;10.66;100.00;99073.78;10526072;28;20047;-39
2024/04/03 12:40:22;;;;;;;1.77;1.20;;;;;;;10.63;100.00;99076.34;10528487;28;20313;-39
2024/04/03 12:45:22;;;;;;;1.92;1.13;;;;;;;10.49;100.00;99077.94;10520303;28;20166;-38
2024/04/03 12:50:23;;;;;;;2.35;1.20;;;;;;;10.69;100.00;99071.19;10525601;28;20101;-39
2024/04/03 12:55:24;;;;;;;1.92;1.20;;;;;;;10.72;100.00;99058.16;10502162;28;20040;-39
2024/04/03 13:00:24;;;;;;;3.00;1.33;;;;;;;10.63;100.00;99066.78;10522903;28;20036;-38
2024/04/03 13:05:25;;;;;;;1.40;1.00;;;;;;;10.65;100.00;99072.88;10521418;28;20501;-39
2024/04/03 13:10:26;;;;;;;2.90;1.00;;;;;;;10.57;100.00;99064.09;10520614;28;20033;-39
2024/04/03 13:15:26;;;;;;;2.67;1.20;;;;;;;10.58;100.00;99062.38;10519221;28;20036;-38
2024/04/03 13:20:27;;;;;;;1.92;1.00;;;;;;;10.66;100.00;99055.50;10519045;28;20037;-38
2024/04/03 13:25:28;;;;;;;1.70;1.15;;;;;;;10.70;100.00;99057.25;10516628;28;20468;-38
2024/04/03 13:30:28;;;;;;;2.70;1.25;;;;;;;10.74;100.00;99053.81;10516349;28;20135;-39
2024/04/03 13:35:29;;;;;;;2.25;1.27;;;;;;;10.77;100.00;99048.63;10514610;28;20045;-39
2024/04/03 13:40:30;;;;;;;2.00;1.35;;;;;;;10.87;100.00;99052.19;10514259;28;20093;-39
2024/04/03 13:45:30;;;;;;;1.90;1.30;;;;;;;10.84;100.00;99054.78;10515500;28;20497;-39
2024/04/03 13:50:31;;;;;;;1.80;1.40;;;;;;;10.81;100.00;99052.13;10511868;28;20527;-38
2024/04/03 13:55:32;;;;;;;2.00;1.50;;;;;;;10.82;100.00;99053.91;10512740;28;20032;-38
2024/04/03 14:00:33;;;;;;;1.60;1.20;;;;;;;10.76;100.00;99062.56;10508151;28;20399;-39
2024/04/03 14:05:33;;;;;;;2.83;1.20;;;;;;;10.72;100.00;99063.41;10510104;28;20394;-39
2024/04/03 14:10:34;;;;;;;3.03;1.58;;;;;;;10.77;100.00;99055.59;10514260;28;20039;-39
2024/04/03 14:15:35;;;;;;;3.22;1.20;;;;;;;10.75;100.00;99066.03;10524568;28;20045;-39
2024/04/03 14:20:35;;;;;;;1.90;0.88;;;;;;;10.51;100.00;99073.59;10533924;28;20149;-39
2024/04/03 14:25:42;;;;;;;1.33;1.10;;;;;;;10.36;100.00;99085.63;10531897;28;20047;-39
2024/04/03 14:30:44;;;;;;;1.58;1.10;;;;;;;10.27;100.00;99097.69;10528458;28;20382;-39
2024/04/03 14:35:44;;;;;;;1.52;1.20;;;;;;;10.15;100.00;99103.63;10509499;28;20486;-38
2024/04/03 14:40:46;;;;;;;1.20;1.10;;;;;;;10.07;100.00;99115.69;10528442;28;20047;-38
2024/04/03 14:46:00;;;;;;;1.20;1.10;;;;;;;9.87;100.00;99116.28;10527932;28;20032;-38
2024/04/03 14:51:01;;;;;;;4.55;1.25;;;;;;;9.89;100.00;99122.38;10527088;28;20036;-39
2024/04/03 14:56:02;;;;;;;1.70;1.20;;;;;;;9.80;100.00;99121.38;10526704;28;20036;-38
2024/04/03 15:01:03;;;;;;;3.45;1.60;;;;;;;9.75;100.00;99124.81;10524690;28;20670;-38
2024/04/03 15:06:04;;;;;;;1.65;1.48;;;;;;;9.71;100.00;99127.38;10502921;28;20043;-38
2024/04/03 15:11:05;;;;;;;2.10;1.63;;;;;;;9.81;100.00;99126.63;10522009;28;20032;-39
2024/04/03 15:16:05;;;;;;;1.92;1.38;;;;;;;9.84;100.00;99126.69;10521128;28;20036;-39
2024/04/03 15:21:06;;;;;;;2.03;1.33;;;;;;;9.89;100.00;99122.38;10518097;28;20039;-38
2024/04/03 15:26:10;;;;;;;3.40;2.20;;;;;;;9.94;100.00;99118.13;10518398;28;20032;-39
2024/04/03 15:31:10;;;;;;;2.58;1.23;;;;;;;10.00;100.00;99110.38;10519277;28;20044;-39
2024/04/03 15:36:12;;;;;;;1.65;1.40;;;;;;;10.01;100.00;99108.66;10515773;28;20047;-38
2024/04/03 15:41:13;;;;;;;1.92;1.38;;;;;;;10.03;100.00;99120.00;10517398;28;20039;-38
2024/04/03 15:46:14;;;;;;;3.58;1.90;;;;;;;10.04;100.00;99119.13;10513848;28;20387;-37
2024/04/03 15:51:16;;;;;;;1.85;1.40;;;;;;;10.00;100.00;99122.56;10512577;28;20437;-38
2024/04/03 15:56:16;;;;;;;3.53;1.60;;;;;;;9.98;100.00;99111.22;10512035;28;20036;-39
2024/04/03 16:01:17;;;;;;;2.70;1.70;;;;;;;9.96;100.00;99108.59;10522936;28;20040;-39
2024/04/03 16:06:18;;;;;;;2.65;2.10;;;;;;;9.92;100.00;99105.91;10529911;28;20032;-39
2024/04/03 16:11:19;;;;;;;6.72;3.97;;;;;;;9.88;100.00;99105.00;10529620;28;20498;-39
2024/04/03 16:16:27;;;;;;;4.13;2.58;;;;;;;9.81;100.00;99104.88;10526490;28;20105;-39
2024/04/03 16:21:34;;;;;;;7.43;4.15;;;;;;;9.82;100.00;99109.25;10443855;28;20036;-41
2024/04/03 16:26:37;;;;;;;10.40;4.70;;;;;;;9.86;100.00;99108.41;10486320;28;20128;-38
2024/04/03 16:31:38;;;;;;;4.72;3.05;;;;;;;9.95;100.00;99101.59;10526195;28;20055;-39
2024/04/03 16:36:41;;;;;;;5.90;3.95;;;;;;;10.18;100.00;99098.41;10530341;28;20048;-38
2024/04/03 16:41:42;;;;;;;3.97;2.83;;;;;;;10.29;100.00;99096.00;10530599;28;20071;-38
2024/04/03 16:46:43;;;;;;;4.13;2.40;;;;;;;10.45;100.00;99098.78;10529734;28;20064;-39
2024/04/03 16:51:44;;;;;;;2.88;2.00;;;;;;;10.73;100.00;99087.78;10529823;28;20074;-39
2024/04/03 16:56:45;;;;;;;2.65;1.88;;;;;;;10.83;100.00;99093.09;10529883;28;20043;-38
2024/04/03 17:01:45;;;;;;;4.60;1.80;;;;;;;10.83;100.00;99090.50;10529040;28;20641;-38
2024/04/03 17:06:46;;;;;;;1.60;1.40;;;;;;;10.78;100.00;99091.31;10528072;28;20917;-39
2024/04/03 17:11:47;;;;;;;1.58;1.33;;;;;;;10.74;100.00;99089.53;10529241;28;20413;-39
2024/04/03 17:16:49;;;;;;;23.63;13.27;;;;;;;10.68;100.00;99088.59;10502250;28;20044;-38
2024/04/03 17:21:49;;;;;;;1.83;1.50;;;;;;;10.67;100.00;99093.81;10517786;28;20513;-38
2024/04/03 17:26:50;;;;;;;1.80;1.27;;;;;;;10.65;100.00;99098.13;10514306;28;20040;-38
2024/04/03 17:31:51;;;;;;;1.65;1.50;;;;;;;10.64;100.00;99099.00;10503251;28;20127;-40
2024/04/03 17:36:52;;;;;;;1.92;1.40;;;;;;;10.60;100.00;99094.63;10513971;28;20036;-39
2024/04/03 17:41:53;;;;;;;1.67;1.30;;;;;;;10.59;100.00;99100.69;10518827;28;20131;-44
2024/04/03 17:46:53;;;;;;;1.55;1.20;;;;;;;10.57;100.00;99092.84;10527593;28;20025;-41
2024/04/03 17:51:55;;;;;;;2.67;1.30;;;;;;;10.56;100.00;99103.25;10525687;28;20058;-38
2024/04/03 17:56:56;;;;;;;2.20;1.60;;;;;;;10.55;100.00;99105.00;10527098;28;20501;-39
2024/04/03 18:02:01;;;;;;;1.80;1.40;;;;;;;10.54;100.00;99111.09;10520254;28;20040;-38
2024/04/03 18:07:06;;;;;;;3.17;1.70;;;;;;;10.55;100.00;99106.75;10509539;28;20093;-38
2024/04/03 18:12:07;;;;;;;2.45;1.80;;;;;;;10.51;100.00;99105.84;10526925;28;20397;-38
2024/04/03 18:17:09;;;;;;;3.08;1.90;;;;;;;10.48;100.00;99110.16;10508594;28;20032;-38
2024/04/03 18:22:11;;;;;;;2.35;1.60;;;;;;;10.44;100.00;99123.16;10513819;28;20044;-39
2024/04/03 18:27:12;;;;;;;2.60;1.70;;;;;;;10.44;100.00;99143.19;10521053;28;20032;-39
2024/04/03 18:32:13;;;;;;;2.95;1.40;;;;;;;10.43;100.00;99144.94;10527556;28;20040;-38
2024/04/03 18:37:14;;;;;;;1.92;1.60;;;;;;;10.35;100.00;99141.34;10526741;28;20036;-38
2024/04/03 18:42:15;;;;;;;3.00;1.60;;;;;;;10.32;100.00;99154.34;10526428;28;20054;-38
2024/04/03 18:47:15;;;;;;;2.05;1.80;;;;;;;10.25;100.00;99164.69;10526402;28;20498;-38
2024/04/03 18:52:16;;;;;;;3.90;1.70;;;;;;;10.19;100.00;99181.13;10521326;28;20092;-39
2024/04/03 18:57:17;;;;;;;2.50;1.90;;;;;;;10.13;100.00;99179.31;10526189;28;20047;-39
2024/04/03 19:02:18;;;;;;;2.78;1.80;;;;;;;10.12;100.00;99185.38;10526946;28;20043;-37
2024/04/03 19:07:20;;;;;;;4.20;2.08;;;;;;;10.13;100.00;99194.09;10516200;28;20043;-39
2024/04/03 19:12:25;;;;;;;2.63;2.10;;;;;;;10.12;100.00;99197.56;10530584;28;20037;-38
2024/04/03 19:17:26;;;;;;;2.90;1.80;;;;;;;10.19;100.00;99207.25;10468651;27;20046;-38
2024/04/03 19:22:27;;;;;;;4.28;2.40;;;;;;;10.25;100.00;99215.16;10524619;28;20047;-38
2024/04/03 19:27:28;;;;;;;3.22;2.42;;;;;;;10.30;100.00;99226.56;10521449;28;20036;-39
2024/04/03 19:32:29;;;;;;;4.25;2.47;;;;;;;10.31;100.00;99228.34;10525979;28;20058;-39
2024/04/03 19:37:30;;;;;;;5.20;2.50;;;;;;;10.32;100.00;99231.81;10531407;28;20032;-39
2024/04/03 19:42:31;;;;;;;3.33;2.42;;;;;;;10.30;100.00;99231.78;10524221;28;20039;-38
2024/04/03 19:47:31;;;;;;;3.63;2.63;;;;;;;10.30;100.00;99237.00;10519947;28;20045;-39
2024/04/03 19:52:32;;;;;;;4.20;3.10;;;;;;;10.28;100.00;99238.75;10507584;28;20048;-39
2024/04/03 19:57:35;;;;;;;4.25;3.20;;;;;;;10.29;100.00;99240.50;10483399;28;20024;-39
2024/04/03 20:02:37;;;;;;;5.88;2.83;;;;;;;10.35;100.00;99248.41;10495456;28;20139;-39
2024/04/03 20:07:38;;;;;;;4.53;3.08;;;;;;;10.33;100.00;99241.41;10516833;28;20051;-37
2024/04/03 20:12:40;;;;;;;4.25;3.22;;;;;;;10.31;100.00;99244.00;10512849;28;20039;-39
2024/04/03 20:17:48;;;;;;;4.80;3.20;;;;;;;10.29;100.00;99247.44;10469140;28;20048;-39
2024/04/03 20:22:55;;;;;;;6.97;3.92;;;;;;;10.24;100.00;99252.56;10496964;28;20065;-41
2024/04/03 20:27:58;;;;;;;7.70;3.42;;;;;;;10.28;100.00;99250.94;10482793;28;20059;-41
2024/04/03 20:33:10;;;;;;;5.65;3.03;;;;;;;10.23;100.00;99262.13;10456115;28;20051;-39
2024/04/03 20:38:17;;;;;;;7.05;3.30;;;;;;;10.21;100.00;99269.06;10490369;28;20045;-39
2024/04/03 20:43:19;;;;;;;6.70;2.85;;;;;;;10.20;100.00;99271.66;10485638;28;20037;-39
2024/04/03 20:48:21;;;;;;;5.60;2.80;;;;;;;10.17;100.00;99287.25;10469625;28;20059;-38
2024/04/03 20:53:21;;;;;;;8.05;2.40;;;;;;;10.12;100.00;99287.22;10508715;28;20163;-39
2024/04/03 20:58:28;;;;;;;3.75;2.25;;;;;;;10.09;100.00;99281.94;10491882;28;20059;-38
2024/04/03 21:03:40;;;;;;;5.10;2.10;;;;;;;10.06;100.00;99294.94;10455057;28;20061;-39
2024/04/03 21:08:50;;;;;;;6.43;2.03;;;;;;;10.02;100.00;99287.88;10442273;28;20044;-41
2024/04/03 21:13:55;;;;;;;5.97;2.10;;;;;;;9.96;100.00;99293.03;10485976;28;20050;-41
2024/04/03 21:18:58;;;;;;;4.35;1.90;;;;;;;9.93;100.00;99291.25;10482887;28;20560;-39
2024/04/03 21:23:59;;;;;;;5.18;1.80;;;;;;;9.88;100.00;99298.09;10489261;28;20044;-40
2024/04/03 21:29:00;;;;;;;6.10;2.17;;;;;;;9.87;100.00;99298.09;10504017;28;20044;-39
2024/04/03 21:34:02;;;;;;;4.75;1.58;;;;;;;9.89;100.00;99305.06;10491138;28;20130;-38
2024/04/03 21:39:04;;;;;;;3.47;1.70;;;;;;;9.88;100.00;99308.53;10482118;28;20036;-41
2024/04/03 21:44:05;;;;;;;3.80;1.50;;;;;;;9.89;100.00;99310.28;10491105;28;20536;-38
2024/04/03 21:49:06;;;;;;;4.18;1.40;;;;;;;9.89;100.00;99314.63;10522608;28;20036;-41
2024/04/03 21:54:06;;;;;;;4.20;1.27;;;;;;;9.87;100.00;99306.78;10520612;28;20035;-40
2024/04/03 21:59:07;;;;;;;4.65;1.23;;;;;;;9.83;100.00;99312.81;10521114;28;20085;-39
2024/04/03 22:04:07;;;;;;;8.63;1.50;;;;;;;9.84;100.00;99317.19;10518696;28;20086;-38
2024/04/03 22:09:09;;;;;;;6.38;1.52;;;;;;;9.83;100.00;99311.91;10517495;28;20040;-40
2024/04/03 22:14:10;;;;;;;3.22;1.48;;;;;;;9.85;100.00;99321.53;10517022;28;20028;-37
2024/04/03 22:19:10;;;;;;;4.80;1.48;;;;;;;9.87;100.00;99311.13;10515929;28;20413;-41
2024/04/03 22:24:11;;;;;;;4.25;1.30;;;;;;;9.89;100.00;99323.34;10516215;28;20489;-39
2024/04/03 22:29:12;;;;;;;6.22;1.50;;;;;;;9.88;100.00;99324.19;10528432;28;20109;-38
2024/04/03 22:34:12;;;;;;;3.50;1.30;;;;;;;9.81;100.00;99343.22;10524029;28;20040;-39
2024/04/03 22:39:14;;;;;;;6.68;1.33;;;;;;;9.83;100.00;99331.09;10530787;28;20097;-41
2024/04/03 22:44:15;;;;;;;4.88;1.50;;;;;;;9.81;100.00;99339.75;10526333;28;20048;-39
2024/04/03 22:49:16;;;;;;;4.25;1.40;;;;;;;9.77;100.00;99354.47;10525819;28;20406;-39
2024/04/03 22:54:17;;;;;;;5.63;1.40;;;;;;;9.73;100.00;99350.00;10514233;28;20033;-41
2024/04/03 22:59:17;;;;;;;4.03;1.15;;;;;;;9.69;100.00;99349.09;10531609;28;20040;-37
2024/04/03 23:04:18;;;;;;;4.35;1.33;;;;;;;9.66;100.00;99348.16;10532789;28;20040;-39
2024/04/03 23:09:19;;;;;;;5.82;1.52;;;;;;;9.64;100.00;99348.13;10535990;28;20093;-41
2024/04/03 23:14:19;;;;;;;3.92;1.50;;;;;;;9.61;100.00;99365.44;10532198;28;20405;-39